Kasagimaru — JJ3905 — position and weather

sailwx.info

Track history (hours):
 
Tides and Currents Weather Stations Pressure Air Temp Water Temp Dewpoint Dewpoint Depression Visibility Wind Speed Wind Dir Waves Ship Positions

Kasagimaru

Last reported at 2015-Jul-03 02:08 UTC. Time now 2015-Jul-03 02:38 UTC.
Position N 34°33' E 135°27'.

Length 42 m; draft 3.5 m.

Type: Tug. MMSI: 431300268.

Date/timePositionNaut miles runAvg speedWind from/ knotsBaromVisibWave heightAir tempDewpointWater temp
2015-Jul-03 02:08N 34°33' E 135°27'0 0.0
2015-Jul-03 01:34N 34°33' E 135°27'0 0.0
2015-Jul-03 00:33N 34°33' E 135°27'0 0.0
2015-Jul-02 23:33N 34°33' E 135°27'0 0.0
2015-Jul-02 22:34N 34°33' E 135°27'0 0.0
2015-Jul-02 21:32N 34°33' E 135°27'0 0.0
2015-Jul-02 20:33N 34°33' E 135°27'0 0.0
2015-Jul-02 19:32N 34°33' E 135°27'0 0.0
2015-Jul-02 18:31N 34°33' E 135°27'0 0.0
2015-Jul-02 17:34N 34°33' E 135°27'0 0.0
2015-Jul-02 16:34N 34°33' E 135°27'0 0.0
2015-Jul-02 15:34N 34°33' E 135°27'0 0.0
2015-Jul-02 14:27N 34°33' E 135°27'0 0.0
2015-Jul-02 13:33N 34°33' E 135°27'0 0.0
2015-Jul-02 11:29N 34°33' E 135°27'0 0.0
2015-Jul-02 10:24N 34°33' E 135°27'0 0.0
2015-Jul-02 09:30N 34°33' E 135°27'0 0.0
2015-Jul-02 08:33N 34°33' E 135°27'0 0.0
2015-Jul-02 07:33N 34°33' E 135°27'0 0.0
2015-Jul-02 06:34N 34°33' E 135°27'0 0.0
2015-Jul-02 05:28N 34°33' E 135°27'2 2.2
2015-Jul-02 04:33N 34°33' E 135°24'2 1.8
2015-Jul-02 03:33N 34°31' E 135°24'0 0.0
2015-Jul-02 02:33N 34°31' E 135°24'0 0.0
2015-Jul-02 01:33N 34°31' E 135°24'1 0.5
2015-Jul-02 00:33N 34°32' E 135°24'2 2.2
2015-Jul-01 23:33N 34°33' E 135°26'3 3.1
2015-Jul-01 22:30N 34°31' E 135°23'1 0.6
2015-Jul-01 21:33N 34°32' E 135°23'3 3.2
2015-Jul-01 20:33N 34°33' E 135°27'0 0.0
2015-Jul-01 19:33N 34°33' E 135°27'0 0.0
2015-Jul-01 18:33N 34°33' E 135°27'0 0.0
2015-Jul-01 17:33N 34°33' E 135°27'0 0.0
2015-Jul-01 16:33N 34°33' E 135°27'0 0.0
2015-Jul-01 15:33N 34°33' E 135°27'0 0.0
2015-Jul-01 14:33N 34°33' E 135°27'0 0.0
2015-Jul-01 13:33N 34°33' E 135°27'0 0.0
2015-Jul-01 09:22N 34°33' E 135°27'0 0.0
2015-Jul-01 08:31N 34°33' E 135°27'0 0.0
2015-Jul-01 07:31N 34°33' E 135°27'0 0.0
2015-Jul-01 06:33N 34°33' E 135°27'1 1.0
2015-Jul-01 05:32N 34°33' E 135°25'4 4.4
2015-Jul-01 04:33N 34°33' E 135°20'5 4.7
2015-Jul-01 03:32N 34°33' E 135°26'1 0.3
2015-Jun-30 23:28N 34°33' E 135°24'2 1.7
2015-Jun-30 22:32N 34°32' E 135°24'2 2.4
2015-Jun-30 21:33N 34°32' E 135°22'4 0.5
2015-Jun-30 12:33N 34°33' E 135°27'0 0.0
2015-Jun-30 11:32N 34°33' E 135°27'0 0.0
2015-Jun-30 10:08N 34°33' E 135°27'0 0.1
2015-Jun-30 09:29N 34°33' E 135°27'1 1.3
2015-Jun-30 08:31N 34°33' E 135°25'1 0.8
2015-Jun-30 07:33N 34°33' E 135°25'4 3.7
2015-Jun-30 06:33N 34°34' E 135°20'4 3.7
2015-Jun-30 05:25N 34°33' E 135°25'1 1.4
2015-Jun-30 04:33N 34°33' E 135°26'1 1.5
2015-Jun-30 03:33N 34°34' E 135°24'2 1.7
2015-Jun-30 02:15N 34°33' E 135°22'3 3.9
2015-Jun-30 01:33N 34°34' E 135°18'2 2.3
2015-Jun-30 00:32N 34°34' E 135°21'4 4.5
2015-Jun-29 23:33N 34°33' E 135°27'0 0.0
2015-Jun-29 22:06N 34°33' E 135°27'0 0.0
2015-Jun-29 21:29N 34°33' E 135°27'0 0.0
2015-Jun-29 20:32N 34°33' E 135°27'0 0.0
2015-Jun-29 19:28N 34°33' E 135°27'0 0.0
2015-Jun-29 18:32N 34°33' E 135°27'0 0.0
2015-Jun-29 17:33N 34°33' E 135°27'0 0.0
2015-Jun-29 16:30N 34°33' E 135°27'0 0.0
2015-Jun-29 14:18N 34°33' E 135°27'0 0.0
2015-Jun-29 13:33N 34°33' E 135°27'4 3.7
2015-Jun-29 12:28N 34°34' E 135°22'1112.4
2015-Jun-29 11:33N 34°35' E 135°08'23 0.6
2015-Jun-27 19:33N 34°41' E 134°41'7 5.7
2015-Jun-27 18:20N 34°39' E 134°49'7 9.3
2015-Jun-27 17:33N 34°38' E 134°58'1111.0
2015-Jun-27 16:33N 34°35' E 135°11'9 1.1
2015-Jun-27 08:15N 34°34' E 135°22'2 2.4
2015-Jun-27 07:32N 34°34' E 135°24'2 2.0
2015-Jun-27 06:32N 34°33' E 135°27'0 0.0
2015-Jun-27 05:32N 34°33' E 135°27'0 0.0
2015-Jun-27 04:33N 34°33' E 135°27'0 0.0
2015-Jun-27 03:33N 34°33' E 135°27'0 0.0
2015-Jun-27 02:33N 34°33' E 135°27'0 0.0
2015-Jun-27 01:33N 34°33' E 135°27'0 0.0
2015-Jun-27 00:33N 34°33' E 135°27'2 1.5
2015-Jun-26 23:32N 34°33' E 135°25'2 2.2
2015-Jun-26 22:33N 34°32' E 135°23'2 2.0
2015-Jun-26 21:33N 34°32' E 135°21'5 5.0
2015-Jun-26 20:33N 34°33' E 135°27'0 0.0
2015-Jun-26 19:33N 34°33' E 135°27'0 0.0
2015-Jun-26 18:33N 34°33' E 135°27'0 0.0
2015-Jun-26 17:29N 34°33' E 135°27'0 0.0
2015-Jun-26 16:33N 34°33' E 135°27'0 0.0
2015-Jun-26 15:33N 34°33' E 135°27'0 0.0
2015-Jun-26 14:19N 34°33' E 135°27'0 0.0
2015-Jun-26 13:13N 34°33' E 135°27'0 0.0
2015-Jun-26 12:23N 34°33' E 135°27'0 0.0
2015-Jun-26 11:30N 34°33' E 135°27'0 0.0
2015-Jun-26 10:33N 34°33' E 135°27'0 0.0
2015-Jun-26 09:33N 34°33' E 135°27'0 0.0
2015-Jun-26 08:30N 34°33' E 135°27'0 0.0
2015-Jun-26 07:31N 34°33' E 135°27'0 0.0
2015-Jun-26 06:33N 34°33' E 135°27'0 0.0
2015-Jun-26 05:33N 34°33' E 135°27'0 0.2
2015-Jun-26 04:31N 34°33' E 135°27'1110.5
2015-Jun-26 03:30N 34°26' E 135°17'1211.6
2015-Jun-26 02:29N 34°20' E 135°05'4 3.0
2015-Jun-26 01:17N 34°22' E 135°00'1114.6
2015-Jun-26 00:33N 34°28' E 135°11'1111.5
2015-Jun-25 23:34N 34°33' E 135°23'2 2.0
2015-Jun-25 22:33N 34°33' E 135°26'1 0.8
2015-Jun-25 21:33N 34°33' E 135°27'0 0.0
2015-Jun-25 20:33N 34°33' E 135°27'0 0.0
2015-Jun-25 19:33N 34°33' E 135°27'0 0.0
2015-Jun-25 18:33N 34°33' E 135°27'0 0.0
2015-Jun-25 17:30N 34°33' E 135°27'0 0.0
2015-Jun-25 16:30N 34°33' E 135°27'0 0.0
2015-Jun-25 15:31N 34°33' E 135°27'0 0.0
2015-Jun-25 14:33N 34°33' E 135°27'0 0.0
2015-Jun-25 13:33N 34°33' E 135°27'0 0.0
2015-Jun-25 12:33N 34°33' E 135°27'0 0.0
2015-Jun-25 11:32N 34°33' E 135°27'0 0.0
2015-Jun-25 10:33N 34°33' E 135°27'0 0.0
2015-Jun-25 09:33N 34°33' E 135°27'0 0.0
2015-Jun-25 08:33N 34°33' E 135°27'0 0.0
2015-Jun-25 07:33N 34°33' E 135°27'0 0.0
2015-Jun-25 06:33N 34°33' E 135°27'0 0.0
2015-Jun-25 05:33N 34°33' E 135°27'0 0.0
2015-Jun-25 04:33N 34°33' E 135°27'0 0.0
2015-Jun-25 03:33N 34°33' E 135°27'0 0.0
2015-Jun-25 02:32N 34°33' E 135°27'2 2.0
2015-Jun-25 01:32N 34°33' E 135°24'1 0.8
2015-Jun-25 00:32N 34°33' E 135°23'7 7.2
2015-Jun-24 23:33N 34°31' E 135°15'1612.6
2015-Jun-24 22:19N 34°20' E 135°02'810.1
2015-Jun-24 21:33N 34°12' E 134°59'3 2.6
2015-Jun-24 20:31N 34°14' E 135°02'1010.7
2015-Jun-24 19:33N 34°22' E 135°10'1211.7
2015-Jun-24 18:33N 34°30' E 135°20'6 6.1
2015-Jun-24 17:33N 34°33' E 135°27'0 0.0
2015-Jun-24 16:32N 34°33' E 135°27'0 0.0
2015-Jun-24 15:33N 34°33' E 135°27'0 0.0
2015-Jun-24 14:33N 34°33' E 135°27'0 0.0
2015-Jun-24 13:32N 34°33' E 135°27'0 0.0
2015-Jun-24 12:33N 34°33' E 135°27'0 0.0
2015-Jun-24 11:33N 34°33' E 135°27'0 0.0
2015-Jun-24 10:30N 34°33' E 135°27'0 0.0
2015-Jun-24 09:33N 34°33' E 135°27'0 0.0
2015-Jun-24 08:33N 34°33' E 135°27'0 0.0
2015-Jun-24 07:33N 34°33' E 135°27'1 1.4
2015-Jun-24 06:33N 34°33' E 135°25'0 0.1
2015-Jun-24 05:32N 34°33' E 135°25'0 0.1
2015-Jun-24 04:28N 34°33' E 135°25'0 0.1
2015-Jun-24 03:21N 34°33' E 135°25'0 0.1
2015-Jun-24 02:30N 34°33' E 135°25'0 0.0
2015-Jun-24 01:32N 34°33' E 135°25'0 0.0
2015-Jun-24 00:33N 34°33' E 135°25'0 0.1
2015-Jun-23 23:33N 34°33' E 135°25'0 0.0
2015-Jun-23 22:23N 34°33' E 135°25'0 0.0
2015-Jun-23 21:28N 34°33' E 135°25'0 0.1
2015-Jun-23 20:33N 34°33' E 135°25'0 0.1
2015-Jun-23 19:33N 34°33' E 135°25'0 0.0
2015-Jun-23 19:02N 34°33' E 135°25'  
Track history (hours):
 
Tides and Currents Weather Stations Pressure Air Temp Water Temp Dewpoint Dewpoint Depression Visibility Wind Speed Wind Dir Waves Ship Positions

Kasagimaru

Last reported at 2015-Jul-03 02:08 UTC. Time now 2015-Jul-03 02:38 UTC.
Position N 34°33' E 135°27'.

Length 42 m; draft 3.5 m.

Type: Tug. MMSI: 431300268.

Date/timePositionNaut miles runAvg speedWind from/ knotsBaromVisibWave heightAir tempDewpointWater temp
2015-Jul-03 02:08N 34°33' E 135°27'0 0.0
2015-Jul-03 01:34N 34°33' E 135°27'0 0.0
2015-Jul-03 00:33N 34°33' E 135°27'0 0.0
2015-Jul-02 23:33N 34°33' E 135°27'0 0.0
2015-Jul-02 22:34N 34°33' E 135°27'0 0.0
2015-Jul-02 21:32N 34°33' E 135°27'0 0.0
2015-Jul-02 20:33N 34°33' E 135°27'0 0.0
2015-Jul-02 19:32N 34°33' E 135°27'0 0.0
2015-Jul-02 18:31N 34°33' E 135°27'0 0.0
2015-Jul-02 17:34N 34°33' E 135°27'0 0.0
2015-Jul-02 16:34N 34°33' E 135°27'0 0.0
2015-Jul-02 15:34N 34°33' E 135°27'0 0.0
2015-Jul-02 14:27N 34°33' E 135°27'0 0.0
2015-Jul-02 13:33N 34°33' E 135°27'0 0.0
2015-Jul-02 11:29N 34°33' E 135°27'0 0.0
2015-Jul-02 10:24N 34°33' E 135°27'0 0.0
2015-Jul-02 09:30N 34°33' E 135°27'0 0.0
2015-Jul-02 08:33N 34°33' E 135°27'0 0.0
2015-Jul-02 07:33N 34°33' E 135°27'0 0.0
2015-Jul-02 06:34N 34°33' E 135°27'0 0.0
2015-Jul-02 05:28N 34°33' E 135°27'2 2.2
2015-Jul-02 04:33N 34°33' E 135°24'2 1.8
2015-Jul-02 03:33N 34°31' E 135°24'0 0.0
2015-Jul-02 02:33N 34°31' E 135°24'0 0.0
2015-Jul-02 01:33N 34°31' E 135°24'1 0.5
2015-Jul-02 00:33N 34°32' E 135°24'2 2.2
2015-Jul-01 23:33N 34°33' E 135°26'3 3.1
2015-Jul-01 22:30N 34°31' E 135°23'1 0.6
2015-Jul-01 21:33N 34°32' E 135°23'3 3.2
2015-Jul-01 20:33N 34°33' E 135°27'0 0.0
2015-Jul-01 19:33N 34°33' E 135°27'0 0.0
2015-Jul-01 18:33N 34°33' E 135°27'0 0.0
2015-Jul-01 17:33N 34°33' E 135°27'0 0.0
2015-Jul-01 16:33N 34°33' E 135°27'0 0.0
2015-Jul-01 15:33N 34°33' E 135°27'0 0.0
2015-Jul-01 14:33N 34°33' E 135°27'0 0.0
2015-Jul-01 13:33N 34°33' E 135°27'0 0.0
2015-Jul-01 09:22N 34°33' E 135°27'0 0.0
2015-Jul-01 08:31N 34°33' E 135°27'0 0.0
2015-Jul-01 07:31N 34°33' E 135°27'0 0.0
2015-Jul-01 06:33N 34°33' E 135°27'1 1.0
2015-Jul-01 05:32N 34°33' E 135°25'4 4.4
2015-Jul-01 04:33N 34°33' E 135°20'5 4.7
2015-Jul-01 03:32N 34°33' E 135°26'1 0.3
2015-Jun-30 23:28N 34°33' E 135°24'2 1.7
2015-Jun-30 22:32N 34°32' E 135°24'2 2.4
2015-Jun-30 21:33N 34°32' E 135°22'4 0.5
2015-Jun-30 12:33N 34°33' E 135°27'0 0.0
2015-Jun-30 11:32N 34°33' E 135°27'0 0.0
2015-Jun-30 10:08N 34°33' E 135°27'0 0.1
2015-Jun-30 09:29N 34°33' E 135°27'1 1.3
2015-Jun-30 08:31N 34°33' E 135°25'1 0.8
2015-Jun-30 07:33N 34°33' E 135°25'4 3.7
2015-Jun-30 06:33N 34°34' E 135°20'4 3.7
2015-Jun-30 05:25N 34°33' E 135°25'1 1.4
2015-Jun-30 04:33N 34°33' E 135°26'1 1.5
2015-Jun-30 03:33N 34°34' E 135°24'2 1.7
2015-Jun-30 02:15N 34°33' E 135°22'3 3.9
2015-Jun-30 01:33N 34°34' E 135°18'2 2.3
2015-Jun-30 00:32N 34°34' E 135°21'4 4.5
2015-Jun-29 23:33N 34°33' E 135°27'0 0.0
2015-Jun-29 22:06N 34°33' E 135°27'0 0.0
2015-Jun-29 21:29N 34°33' E 135°27'0 0.0
2015-Jun-29 20:32N 34°33' E 135°27'0 0.0
2015-Jun-29 19:28N 34°33' E 135°27'0 0.0
2015-Jun-29 18:32N 34°33' E 135°27'0 0.0
2015-Jun-29 17:33N 34°33' E 135°27'0 0.0
2015-Jun-29 16:30N 34°33' E 135°27'0 0.0
2015-Jun-29 14:18N 34°33' E 135°27'0 0.0
2015-Jun-29 13:33N 34°33' E 135°27'4 3.7
2015-Jun-29 12:28N 34°34' E 135°22'1112.4
2015-Jun-29 11:33N 34°35' E 135°08'23 0.6
2015-Jun-27 19:33N 34°41' E 134°41'7 5.7
2015-Jun-27 18:20N 34°39' E 134°49'7 9.3
2015-Jun-27 17:33N 34°38' E 134°58'1111.0
2015-Jun-27 16:33N 34°35' E 135°11'9 1.1
2015-Jun-27 08:15N 34°34' E 135°22'2 2.4
2015-Jun-27 07:32N 34°34' E 135°24'2 2.0
2015-Jun-27 06:32N 34°33' E 135°27'0 0.0
2015-Jun-27 05:32N 34°33' E 135°27'0 0.0
2015-Jun-27 04:33N 34°33' E 135°27'0 0.0
2015-Jun-27 03:33N 34°33' E 135°27'0 0.0
2015-Jun-27 02:33N 34°33' E 135°27'0 0.0
2015-Jun-27 01:33N 34°33' E 135°27'0 0.0
2015-Jun-27 00:33N 34°33' E 135°27'2 1.5
2015-Jun-26 23:32N 34°33' E 135°25'2 2.2
2015-Jun-26 22:33N 34°32' E 135°23'2 2.0
2015-Jun-26 21:33N 34°32' E 135°21'5 5.0
2015-Jun-26 20:33N 34°33' E 135°27'0 0.0
2015-Jun-26 19:33N 34°33' E 135°27'0 0.0
2015-Jun-26 18:33N 34°33' E 135°27'0 0.0
2015-Jun-26 17:29N 34°33' E 135°27'0 0.0
2015-Jun-26 16:33N 34°33' E 135°27'0 0.0
2015-Jun-26 15:33N 34°33' E 135°27'0 0.0
2015-Jun-26 14:19N 34°33' E 135°27'0 0.0
2015-Jun-26 13:13N 34°33' E 135°27'0 0.0
2015-Jun-26 12:23N 34°33' E 135°27'0 0.0
2015-Jun-26 11:30N 34°33' E 135°27'0 0.0
2015-Jun-26 10:33N 34°33' E 135°27'0 0.0
2015-Jun-26 09:33N 34°33' E 135°27'0 0.0
2015-Jun-26 08:30N 34°33' E 135°27'0 0.0
2015-Jun-26 07:31N 34°33' E 135°27'0 0.0
2015-Jun-26 06:33N 34°33' E 135°27'0 0.0
2015-Jun-26 05:33N 34°33' E 135°27'0 0.2
2015-Jun-26 04:31N 34°33' E 135°27'1110.5
2015-Jun-26 03:30N 34°26' E 135°17'1211.6
2015-Jun-26 02:29N 34°20' E 135°05'4 3.0
2015-Jun-26 01:17N 34°22' E 135°00'1114.6
2015-Jun-26 00:33N 34°28' E 135°11'1111.5
2015-Jun-25 23:34N 34°33' E 135°23'2 2.0
2015-Jun-25 22:33N 34°33' E 135°26'1 0.8
2015-Jun-25 21:33N 34°33' E 135°27'0 0.0
2015-Jun-25 20:33N 34°33' E 135°27'0 0.0
2015-Jun-25 19:33N 34°33' E 135°27'0 0.0
2015-Jun-25 18:33N 34°33' E 135°27'0 0.0
2015-Jun-25 17:30N 34°33' E 135°27'0 0.0
2015-Jun-25 16:30N 34°33' E 135°27'0 0.0
2015-Jun-25 15:31N 34°33' E 135°27'0 0.0
2015-Jun-25 14:33N 34°33' E 135°27'0 0.0
2015-Jun-25 13:33N 34°33' E 135°27'0 0.0
2015-Jun-25 12:33N 34°33' E 135°27'0 0.0
2015-Jun-25 11:32N 34°33' E 135°27'0 0.0
2015-Jun-25 10:33N 34°33' E 135°27'0 0.0
2015-Jun-25 09:33N 34°33' E 135°27'0 0.0
2015-Jun-25 08:33N 34°33' E 135°27'0 0.0
2015-Jun-25 07:33N 34°33' E 135°27'0 0.0
2015-Jun-25 06:33N 34°33' E 135°27'0 0.0
2015-Jun-25 05:33N 34°33' E 135°27'0 0.0
2015-Jun-25 04:33N 34°33' E 135°27'0 0.0
2015-Jun-25 03:33N 34°33' E 135°27'0 0.0
2015-Jun-25 02:32N 34°33' E 135°27'2 2.0
2015-Jun-25 01:32N 34°33' E 135°24'1 0.8
2015-Jun-25 00:32N 34°33' E 135°23'7 7.2
2015-Jun-24 23:33N 34°31' E 135°15'1612.6
2015-Jun-24 22:19N 34°20' E 135°02'810.1
2015-Jun-24 21:33N 34°12' E 134°59'3 2.6
2015-Jun-24 20:31N 34°14' E 135°02'1010.7
2015-Jun-24 19:33N 34°22' E 135°10'1211.7
2015-Jun-24 18:33N 34°30' E 135°20'6 6.1
2015-Jun-24 17:33N 34°33' E 135°27'0 0.0
2015-Jun-24 16:32N 34°33' E 135°27'0 0.0
2015-Jun-24 15:33N 34°33' E 135°27'0 0.0
2015-Jun-24 14:33N 34°33' E 135°27'0 0.0
2015-Jun-24 13:32N 34°33' E 135°27'0 0.0
2015-Jun-24 12:33N 34°33' E 135°27'0 0.0
2015-Jun-24 11:33N 34°33' E 135°27'0 0.0
2015-Jun-24 10:30N 34°33' E 135°27'0 0.0
2015-Jun-24 09:33N 34°33' E 135°27'0 0.0
2015-Jun-24 08:33N 34°33' E 135°27'0 0.0
2015-Jun-24 07:33N 34°33' E 135°27'1 1.4
2015-Jun-24 06:33N 34°33' E 135°25'0 0.1
2015-Jun-24 05:32N 34°33' E 135°25'0 0.1
2015-Jun-24 04:28N 34°33' E 135°25'0 0.1
2015-Jun-24 03:21N 34°33' E 135°25'0 0.1
2015-Jun-24 02:30N 34°33' E 135°25'0 0.0
2015-Jun-24 01:32N 34°33' E 135°25'0 0.0
2015-Jun-24 00:33N 34°33' E 135°25'0 0.1
2015-Jun-23 23:33N 34°33' E 135°25'0 0.0
2015-Jun-23 22:23N 34°33' E 135°25'0 0.0
2015-Jun-23 21:28N 34°33' E 135°25'0 0.1
2015-Jun-23 20:33N 34°33' E 135°25'0 0.1
2015-Jun-23 19:33N 34°33' E 135°25'0 0.0
2015-Jun-23 19:02N 34°33' E 135°25'  

Dump ship's entire track history